createdAt,value
2023-05-11T00:01:51.705Z,99.90
2023-05-11T00:04:24.314Z,99.90
2023-05-11T00:06:54.309Z,99.90
2023-05-11T00:09:24.255Z,99.90
2023-05-11T00:11:55.710Z,99.90
2023-05-11T00:14:26.957Z,99.90
2023-05-11T00:16:56.949Z,99.90
2023-05-11T00:19:31.868Z,99.90
2023-05-11T00:22:02.333Z,99.90
2023-05-11T00:24:32.348Z,99.90
2023-05-11T00:27:02.326Z,99.90
2023-05-11T00:29:32.314Z,99.90
2023-05-11T00:32:02.307Z,99.90
2023-05-11T00:34:34.905Z,99.90
2023-05-11T00:37:05.511Z,99.90
2023-05-11T00:39:40.348Z,99.90
2023-05-11T00:42:10.610Z,99.90
2023-05-11T00:44:40.563Z,99.90
2023-05-11T00:47:10.811Z,99.90
2023-05-11T00:49:44.108Z,99.90
2023-05-11T00:52:14.252Z,99.90
2023-05-11T00:54:45.020Z,99.90
2023-05-11T00:57:15.046Z,99.90
2023-05-11T00:59:45.110Z,99.90
2023-05-11T01:02:15.315Z,99.90
2023-05-11T01:04:48.154Z,99.90
2023-05-11T01:07:26.156Z,99.90
2023-05-11T01:10:04.333Z,99.90
2023-05-11T01:12:43.391Z,99.90
2023-05-11T01:15:17.411Z,99.90
2023-05-11T01:17:56.050Z,99.90
2023-05-11T01:20:32.641Z,99.90
2023-05-11T01:23:43.960Z,99.90
2023-05-11T01:26:45.248Z,99.90
2023-05-11T01:29:53.378Z,99.90
2023-05-11T01:32:29.453Z,99.90
2023-05-11T01:35:07.498Z,99.90
2023-05-11T01:37:39.211Z,99.90
2023-05-11T01:40:18.536Z,99.90
2023-05-11T01:42:53.575Z,99.90
2023-05-11T01:45:25.736Z,99.90
2023-05-11T01:47:59.496Z,99.90
2023-05-11T01:50:29.688Z,99.90
2023-05-11T01:52:59.794Z,99.90
2023-05-11T01:55:31.049Z,99.90
2023-05-11T01:58:02.097Z,99.90
2023-05-11T02:00:32.259Z,99.90
2023-05-11T02:03:08.619Z,99.90
2023-05-11T02:05:39.597Z,99.90
2023-05-11T02:08:10.346Z,99.90
2023-05-11T02:10:41.715Z,99.90
2023-05-11T02:13:13.646Z,99.90
2023-05-11T02:15:45.808Z,99.90
2023-05-11T02:18:19.337Z,99.90
2023-05-11T02:20:50.729Z,99.90
2023-05-11T02:23:22.447Z,99.90
2023-05-11T02:25:53.303Z,99.90
2023-05-11T02:28:23.656Z,99.90
2023-05-11T02:30:58.569Z,99.90
2023-05-11T02:33:37.348Z,99.90
2023-05-11T02:36:09.607Z,99.90
2023-05-11T02:38:41.865Z,99.90
2023-05-11T02:41:16.032Z,99.90
2023-05-11T02:43:50.376Z,99.90
2023-05-11T02:46:25.129Z,99.90
2023-05-11T02:49:02.762Z,99.90
2023-05-11T02:51:38.007Z,99.90
2023-05-11T02:54:10.906Z,99.90
2023-05-11T02:56:41.884Z,99.90
2023-05-11T02:59:12.082Z,99.90
2023-05-11T03:01:42.906Z,99.90
2023-05-11T03:04:15.520Z,99.90
2023-05-11T03:06:45.640Z,99.90
2023-05-11T03:09:15.715Z,99.90
2023-05-11T03:11:46.252Z,99.90
2023-05-11T03:14:17.749Z,99.90
2023-05-11T03:16:48.146Z,99.90
2023-05-11T03:19:21.283Z,99.90
2023-05-11T03:21:53.099Z,99.90
2023-05-11T03:24:23.686Z,99.90
2023-05-11T03:26:54.892Z,99.90
2023-05-11T03:29:26.012Z,99.90
2023-05-11T03:31:57.306Z,99.90
2023-05-11T03:34:29.910Z,99.90
2023-05-11T03:37:01.155Z,99.90
2023-05-11T03:39:34.073Z,99.90
2023-05-11T03:42:04.999Z,99.90
2023-05-11T03:44:36.144Z,99.90
2023-05-11T03:47:07.405Z,99.90
2023-05-11T03:49:41.157Z,99.90
2023-05-11T03:52:11.918Z,99.90
2023-05-11T03:54:42.044Z,99.90
2023-05-11T03:57:12.868Z,99.90
2023-05-11T03:59:43.180Z,99.90
2023-05-11T04:02:13.300Z,99.90
2023-05-11T04:04:45.952Z,99.90
2023-05-11T04:07:16.034Z,99.90
2023-05-11T04:09:46.035Z,99.90
2023-05-11T04:12:16.041Z,99.90
2023-05-11T04:14:46.044Z,99.90
2023-05-11T04:17:15.962Z,99.90
2023-05-11T04:19:48.510Z,99.90
2023-05-11T04:22:18.489Z,99.90
2023-05-11T04:24:48.460Z,99.90
2023-05-11T04:27:18.527Z,99.90
2023-05-11T04:29:49.025Z,99.90
2023-05-11T04:32:18.988Z,99.90
2023-05-11T04:34:51.515Z,99.90
2023-05-11T04:37:21.485Z,99.90
2023-05-11T04:39:51.474Z,99.90
2023-05-11T04:42:21.444Z,99.90
2023-05-11T04:44:51.418Z,99.90
2023-05-11T04:47:21.422Z,99.90
2023-05-11T04:49:53.993Z,99.90
2023-05-11T04:52:23.969Z,99.90
2023-05-11T04:54:53.919Z,99.90
2023-05-11T04:57:23.927Z,99.90
2023-05-11T04:59:53.947Z,99.90
2023-05-11T05:02:24.044Z,99.90
2023-05-11T05:04:56.609Z,99.90
2023-05-11T05:07:26.742Z,99.90
2023-05-11T05:09:56.740Z,99.90
2023-05-11T05:12:26.724Z,99.90
2023-05-11T05:14:56.674Z,99.90
2023-05-11T05:17:26.720Z,99.90
2023-05-11T05:19:59.317Z,99.90
2023-05-11T05:22:29.609Z,99.90
2023-05-11T05:24:59.803Z,99.90
2023-05-11T05:27:31.738Z,99.90
2023-05-11T05:30:03.711Z,99.90
2023-05-11T05:32:33.745Z,99.90
2023-05-11T05:35:07.042Z,99.90
2023-05-11T05:37:37.722Z,99.90
2023-05-11T05:40:10.245Z,99.90
2023-05-11T05:42:40.249Z,99.90
2023-05-11T05:45:14.605Z,99.90
2023-05-11T05:47:44.972Z,99.90
2023-05-11T05:50:17.868Z,99.90
2023-05-11T05:52:48.029Z,99.90
2023-05-11T05:55:18.028Z,99.90
2023-05-11T05:57:47.992Z,99.90
2023-05-11T06:00:19.416Z,99.90
2023-05-11T06:02:49.712Z,99.90
2023-05-11T06:05:22.611Z,99.90
2023-05-11T06:08:08.375Z,99.90
2023-05-11T06:10:39.608Z,99.90
2023-05-11T06:13:11.389Z,99.90
2023-05-11T06:15:43.390Z,99.90
2023-05-11T06:18:13.958Z,99.90
2023-05-11T06:20:46.523Z,99.90
2023-05-11T06:23:16.887Z,99.90
2023-05-11T06:25:47.126Z,99.80
2023-05-11T06:28:17.171Z,98.70
2023-05-11T06:30:47.336Z,99.40
2023-05-11T06:33:17.325Z,98.70
2023-05-11T06:35:49.861Z,98.90
2023-05-11T06:38:19.939Z,98.00
2023-05-11T06:40:49.988Z,97.30
2023-05-11T06:43:19.972Z,97.80
2023-05-11T06:45:50.081Z,97.60
2023-05-11T06:48:20.160Z,96.70
2023-05-11T06:50:52.701Z,96.60
2023-05-11T06:53:22.725Z,96.40
2023-05-11T06:55:52.695Z,96.80
2023-05-11T06:58:23.088Z,96.80
2023-05-11T07:00:53.215Z,95.80
2023-05-11T07:03:23.256Z,95.80
2023-05-11T07:05:56.118Z,95.20
2023-05-11T07:08:28.814Z,95.10
2023-05-11T07:10:59.762Z,94.40
2023-05-11T07:13:29.756Z,93.90
2023-05-11T07:15:59.798Z,94.00
2023-05-11T07:18:30.347Z,94.50
2023-05-11T07:21:02.943Z,94.10
2023-05-11T07:23:32.937Z,94.00
2023-05-11T07:26:04.689Z,93.60
2023-05-11T07:28:34.690Z,94.20
2023-05-11T07:31:04.723Z,93.30
2023-05-11T07:33:34.902Z,93.00
2023-05-11T07:36:08.194Z,93.00
2023-05-11T07:38:38.936Z,93.30
2023-05-11T07:41:11.567Z,92.60
2023-05-11T07:43:42.821Z,93.80
2023-05-11T07:46:12.917Z,93.10
2023-05-11T07:48:44.119Z,92.60
2023-05-11T07:51:17.751Z,91.40
2023-05-11T07:53:47.770Z,91.90
2023-05-11T07:56:17.749Z,91.20
2023-05-11T07:58:47.836Z,91.30
2023-05-11T08:01:17.835Z,91.20
2023-05-11T08:03:47.901Z,91.10
2023-05-11T08:06:20.542Z,90.80
2023-05-11T08:08:50.526Z,90.70
2023-05-11T08:11:20.517Z,90.50
2023-05-11T08:13:50.487Z,90.30
2023-05-11T08:16:20.593Z,89.80
2023-05-11T08:18:50.749Z,89.70
2023-05-11T08:21:23.738Z,88.90
2023-05-11T08:23:53.782Z,88.40
2023-05-11T08:26:23.776Z,87.90
2023-05-11T08:28:53.923Z,88.80
2023-05-11T08:31:24.044Z,88.00
2023-05-11T08:33:54.193Z,86.70
2023-05-11T08:36:27.091Z,87.50
2023-05-11T08:38:59.138Z,85.80
2023-05-11T08:41:29.568Z,87.00
2023-05-11T08:44:02.345Z,86.20
2023-05-11T08:46:38.395Z,85.50
2023-05-11T08:49:09.963Z,83.90
2023-05-11T08:51:42.888Z,84.50
2023-05-11T08:54:13.031Z,84.90
2023-05-11T08:56:44.913Z,84.40
2023-05-11T08:59:16.614Z,85.70
2023-05-11T09:01:46.863Z,83.70
2023-05-11T09:04:17.742Z,80.60
2023-05-11T09:06:52.136Z,80.80
2023-05-11T09:09:22.714Z,82.70
2023-05-11T09:11:53.086Z,83.70
2023-05-11T09:14:26.997Z,83.90
2023-05-11T09:16:58.945Z,81.40
2023-05-11T09:19:29.178Z,81.20
2023-05-11T09:22:02.396Z,80.40
2023-05-11T09:24:32.563Z,83.10
2023-05-11T09:27:12.661Z,83.30
2023-05-11T09:29:42.664Z,81.10
2023-05-11T09:32:12.788Z,79.10
2023-05-11T09:34:43.100Z,78.30
2023-05-11T09:37:20.642Z,79.00
2023-05-11T09:42:32.983Z,78.40
2023-05-11T09:45:02.967Z,78.80
2023-05-11T09:47:42.581Z,78.90
2023-05-11T09:50:26.465Z,78.80
2023-05-11T09:52:59.278Z,79.30
2023-05-11T09:55:29.508Z,79.60
2023-05-11T09:58:01.948Z,78.40
2023-05-11T10:00:31.916Z,77.90
2023-05-11T10:03:07.198Z,79.70
2023-05-11T10:05:39.122Z,76.90
2023-05-11T10:08:11.851Z,77.40
2023-05-11T10:10:42.662Z,77.30
2023-05-11T10:13:12.692Z,76.80
2023-05-11T10:15:43.014Z,76.60
2023-05-11T10:18:13.111Z,74.30
2023-05-11T10:20:43.497Z,74.20
2023-05-11T10:23:16.225Z,72.40
2023-05-11T10:25:48.045Z,72.90
2023-05-11T10:28:18.417Z,72.80
2023-05-11T10:30:50.076Z,72.10
2023-05-11T10:33:21.010Z,73.80
2023-05-11T10:35:53.986Z,74.70
2023-05-11T10:38:28.156Z,74.50
2023-05-11T10:41:09.085Z,72.10
2023-05-11T10:44:05.762Z,70.30
2023-05-11T10:46:56.975Z,73.00
2023-05-11T10:50:08.849Z,75.00
2023-05-11T10:53:16.060Z,76.80
2023-05-11T10:56:20.789Z,78.30
2023-05-11T10:59:46.365Z,77.90
2023-05-11T11:02:18.784Z,77.40
2023-05-11T11:04:51.747Z,78.20
2023-05-11T11:07:22.431Z,78.20
2023-05-11T11:10:00.534Z,78.70
2023-05-11T11:12:35.209Z,79.50
2023-05-11T11:15:08.234Z,78.10
2023-05-11T11:17:39.244Z,77.00
2023-05-11T11:20:10.846Z,78.80
2023-05-11T11:22:48.592Z,78.00
2023-05-11T11:25:57.324Z,76.10
2023-05-11T11:28:28.358Z,77.10
2023-05-11T11:31:26.511Z,76.50
2023-05-11T11:33:59.394Z,75.80
2023-05-11T11:37:06.230Z,76.60
2023-05-11T11:40:02.599Z,75.20
2023-05-11T11:42:44.352Z,74.40
2023-05-11T11:45:32.691Z,72.70
2023-05-11T11:48:17.346Z,74.40
2023-05-11T11:50:50.277Z,75.00
2023-05-11T11:54:09.060Z,76.00
2023-05-11T11:56:47.685Z,76.20
2023-05-11T11:59:20.492Z,76.80
2023-05-11T12:01:56.072Z,74.80
2023-05-11T12:04:54.050Z,74.30
2023-05-11T12:07:24.436Z,75.80
2023-05-11T12:09:55.166Z,74.40
2023-05-11T12:12:25.283Z,73.80
2023-05-11T12:15:00.112Z,74.00
2023-05-11T12:17:34.661Z,75.10
2023-05-11T12:20:17.537Z,73.70
2023-05-11T12:22:49.340Z,73.70
2023-05-11T12:25:20.397Z,72.60
2023-05-11T12:27:54.897Z,71.70
2023-05-11T12:30:31.941Z,71.30
2023-05-11T12:33:04.647Z,71.90
2023-05-11T12:35:39.128Z,69.80
2023-05-11T12:38:09.232Z,70.10
2023-05-11T12:40:40.419Z,69.90
2023-05-11T12:43:10.464Z,70.60
2023-05-11T12:45:43.152Z,70.40
2023-05-11T12:48:13.770Z,71.20
2023-05-11T12:50:45.048Z,70.30
2023-05-11T12:53:19.417Z,70.10
2023-05-11T12:56:00.418Z,68.10
2023-05-11T12:58:40.070Z,68.50
2023-05-11T13:01:12.835Z,68.30
2023-05-11T13:03:43.549Z,68.80
2023-05-11T13:06:15.904Z,69.50
2023-05-11T13:08:50.050Z,69.60
2023-05-11T13:11:22.854Z,69.00
2023-05-11T13:13:53.362Z,68.40
2023-05-11T13:16:34.781Z,68.70
2023-05-11T13:19:08.294Z,68.60
2023-05-11T13:21:38.524Z,69.20
2023-05-11T13:24:09.517Z,67.40
2023-05-11T13:26:39.544Z,67.70
2023-05-11T13:29:11.376Z,67.20
2023-05-11T13:31:49.836Z,66.40
2023-05-11T13:34:20.858Z,64.50
2023-05-11T13:36:51.310Z,64.50
2023-05-11T13:39:21.805Z,64.00
2023-05-11T13:41:52.706Z,64.90
2023-05-11T13:44:24.461Z,65.00
2023-05-11T13:46:57.952Z,65.00
2023-05-11T13:49:28.027Z,65.70
2023-05-11T13:51:58.273Z,65.00
2023-05-11T13:54:28.339Z,65.70
2023-05-11T13:56:58.560Z,65.60
2023-05-11T13:59:28.696Z,66.80
2023-05-11T14:02:01.493Z,65.70
2023-05-11T14:04:31.682Z,65.50
2023-05-11T14:07:02.424Z,66.30
2023-05-11T14:09:32.648Z,67.10
2023-05-11T14:12:03.202Z,65.50
2023-05-11T14:14:33.270Z,65.40
2023-05-11T14:17:06.121Z,64.50
2023-05-11T14:19:36.348Z,65.70
2023-05-11T14:22:06.521Z,65.40
2023-05-11T14:24:37.206Z,64.10
2023-05-11T14:27:07.909Z,64.90
2023-05-11T14:29:41.170Z,65.80
2023-05-11T14:32:16.174Z,65.90
2023-05-11T14:34:46.298Z,65.50
2023-05-11T14:37:16.566Z,67.10
2023-05-11T14:39:46.696Z,64.10
2023-05-11T14:42:16.959Z,64.10
2023-05-11T14:44:47.053Z,63.90
2023-05-11T14:47:19.802Z,64.40
2023-05-11T14:49:49.893Z,63.80
2023-05-11T14:52:19.970Z,64.50
2023-05-11T14:54:50.019Z,64.20
2023-05-11T14:57:20.409Z,63.40
2023-05-11T14:59:59.058Z,64.00
2023-05-11T15:02:33.020Z,64.10
2023-05-11T15:05:03.125Z,64.80
2023-05-11T15:07:33.145Z,64.30
2023-05-11T15:10:04.626Z,65.40
2023-05-11T15:12:34.754Z,64.70
2023-05-11T15:15:05.000Z,65.70
2023-05-11T15:17:37.686Z,65.60
2023-05-11T15:20:10.343Z,64.70
2023-05-11T15:22:40.412Z,65.30
2023-05-11T15:25:12.028Z,65.40
2023-05-11T15:27:42.111Z,66.10
2023-05-11T15:30:14.214Z,65.30
2023-05-11T15:32:46.930Z,66.10
2023-05-11T15:35:17.435Z,65.90
2023-05-11T15:37:47.722Z,66.10
2023-05-11T15:40:17.836Z,65.20
2023-05-11T15:42:47.878Z,65.50
2023-05-11T15:45:18.495Z,65.80
2023-05-11T15:47:51.410Z,67.10
2023-05-11T15:50:21.839Z,65.10
2023-05-11T15:52:52.250Z,65.00
2023-05-11T15:55:22.826Z,66.30
2023-05-11T15:57:52.913Z,66.30
2023-05-11T16:00:23.562Z,66.70
2023-05-11T16:02:56.327Z,66.60
2023-05-11T16:05:27.083Z,67.80
2023-05-11T16:07:57.519Z,69.30
2023-05-11T16:10:27.602Z,70.00
2023-05-11T16:12:58.902Z,70.50
2023-05-11T16:15:29.639Z,71.20
2023-05-11T16:18:04.872Z,71.60
2023-05-11T16:20:35.531Z,71.10
2023-05-11T16:23:05.568Z,71.80
2023-05-11T16:25:35.642Z,71.50
2023-05-11T16:28:05.951Z,72.50
2023-05-11T16:30:36.109Z,71.10
2023-05-11T16:33:08.822Z,70.40
2023-05-11T16:35:38.925Z,70.80
2023-05-11T16:38:08.995Z,71.00
2023-05-11T16:40:39.070Z,70.90
2023-05-11T16:43:09.185Z,70.70
2023-05-11T16:45:39.560Z,71.10
2023-05-11T16:48:12.296Z,71.20
2023-05-11T16:50:42.574Z,71.00
2023-05-11T16:53:12.630Z,71.40
2023-05-11T16:55:42.703Z,70.80
2023-05-11T16:58:12.871Z,70.90
2023-05-11T17:00:42.960Z,71.00
2023-05-11T17:03:15.690Z,70.20
2023-05-11T17:05:46.245Z,70.60
2023-05-11T17:08:16.506Z,70.80
2023-05-11T17:10:46.805Z,69.70
2023-05-11T17:13:16.966Z,71.20
2023-05-11T17:15:47.343Z,71.00
2023-05-11T17:18:20.037Z,71.40
2023-05-11T17:20:56.167Z,70.90
2023-05-11T17:23:27.596Z,71.40
2023-05-11T17:25:57.680Z,71.00
2023-05-11T17:28:27.831Z,70.80
2023-05-11T17:30:58.001Z,70.50
2023-05-11T17:33:31.169Z,70.10
2023-05-11T17:36:01.666Z,70.40
2023-05-11T17:38:31.744Z,71.00
2023-05-11T17:41:05.609Z,70.50
2023-05-11T17:43:36.645Z,70.70
2023-05-11T17:46:06.841Z,70.70
2023-05-11T17:48:39.497Z,70.80
2023-05-11T17:51:09.743Z,71.20
2023-05-11T17:53:39.988Z,71.20
2023-05-11T17:56:12.099Z,71.50
2023-05-11T17:58:43.240Z,72.00
2023-05-11T18:01:15.147Z,72.20
2023-05-11T18:03:48.428Z,72.20
2023-05-11T18:06:18.756Z,72.40
2023-05-11T18:08:48.834Z,72.60
2023-05-11T18:11:18.862Z,72.70
2023-05-11T18:13:49.654Z,72.70
2023-05-11T18:16:21.833Z,72.80
2023-05-11T18:18:55.577Z,72.90
2023-05-11T18:21:27.704Z,73.10
2023-05-11T18:23:58.279Z,73.10
2023-05-11T18:26:29.277Z,73.20
2023-05-11T18:28:59.750Z,73.30
2023-05-11T18:31:31.248Z,73.90
2023-05-11T18:34:04.081Z,73.90
2023-05-11T18:36:34.792Z,74.00
2023-05-11T18:39:05.028Z,74.20
2023-05-11T18:41:35.645Z,74.80
2023-05-11T18:44:05.996Z,74.30
2023-05-11T18:46:36.154Z,74.60
2023-05-11T18:49:09.249Z,75.20
2023-05-11T18:51:39.534Z,75.50
2023-05-11T18:54:10.276Z,75.20
2023-05-11T18:56:40.401Z,76.30
2023-05-11T18:59:11.097Z,75.70
2023-05-11T19:04:20.560Z,76.20
2023-05-11T19:06:50.952Z,76.40
2023-05-11T19:09:22.615Z,76.50
2023-05-11T19:11:52.710Z,76.60
2023-05-11T19:14:22.761Z,77.10
2023-05-11T19:16:53.564Z,78.10
2023-05-11T19:19:26.697Z,77.50
2023-05-11T19:21:57.076Z,77.90
2023-05-11T19:24:29.266Z,78.40
2023-05-11T19:27:06.433Z,77.80
2023-05-11T19:29:38.117Z,77.80
2023-05-11T19:32:09.828Z,78.10
2023-05-11T19:34:42.764Z,78.20
2023-05-11T19:37:13.321Z,78.50
2023-05-11T19:39:44.157Z,78.30
2023-05-11T19:42:15.836Z,78.50
2023-05-11T19:44:47.018Z,78.40
2023-05-11T19:47:17.100Z,78.60
2023-05-11T19:49:49.827Z,78.80
2023-05-11T19:52:20.213Z,78.80
2023-05-11T19:54:50.254Z,79.40
2023-05-11T19:57:20.317Z,80.00
2023-05-11T19:59:50.375Z,80.00
2023-05-11T20:02:20.948Z,80.20
2023-05-11T20:04:53.712Z,80.20
2023-05-11T20:07:24.125Z,80.20
2023-05-11T20:09:54.604Z,80.60
2023-05-11T20:12:24.732Z,80.70
2023-05-11T20:14:55.729Z,81.20
2023-05-11T20:17:26.397Z,81.30
2023-05-11T20:19:59.191Z,81.20
2023-05-11T20:22:29.671Z,81.50
2023-05-11T20:25:00.412Z,81.90
2023-05-11T20:27:31.004Z,82.20
2023-05-11T20:30:01.714Z,82.40
2023-05-11T20:32:32.058Z,82.60
2023-05-11T20:35:04.919Z,82.90
2023-05-11T20:37:35.272Z,82.90
2023-05-11T20:40:06.868Z,82.90
2023-05-11T20:42:36.975Z,83.40
2023-05-11T20:45:09.186Z,83.50
2023-05-11T20:47:39.522Z,84.20
2023-05-11T20:50:13.877Z,83.90
2023-05-11T20:52:44.100Z,84.00
2023-05-11T20:55:14.200Z,84.40
2023-05-11T20:57:44.390Z,84.90
2023-05-11T21:00:17.895Z,84.80
2023-05-11T21:02:49.162Z,84.70
2023-05-11T21:05:24.102Z,85.00
2023-05-11T21:07:56.021Z,85.10
2023-05-11T21:10:26.559Z,85.60
2023-05-11T21:12:56.761Z,85.70
2023-05-11T21:15:27.094Z,86.10
2023-05-11T21:17:57.951Z,86.30
2023-05-11T21:20:31.476Z,86.90
2023-05-11T21:23:02.418Z,86.90
2023-05-11T21:25:32.791Z,86.70
2023-05-11T21:28:05.111Z,87.20
2023-05-11T21:30:35.342Z,87.40
2023-05-11T21:33:05.540Z,87.90
2023-05-11T21:35:38.350Z,88.10
2023-05-11T21:38:08.550Z,88.10
2023-05-11T21:40:38.832Z,88.40
2023-05-11T21:43:10.509Z,88.50
2023-05-11T21:45:41.520Z,88.40
2023-05-11T21:48:11.889Z,88.50
2023-05-11T21:50:44.871Z,88.50
2023-05-11T21:53:15.477Z,88.80
2023-05-11T21:55:45.725Z,89.00
2023-05-11T21:58:16.352Z,88.80
2023-05-11T22:00:46.936Z,89.20
2023-05-11T22:03:17.303Z,89.20
2023-05-11T22:05:50.212Z,88.60
2023-05-11T22:08:20.217Z,89.20
2023-05-11T22:10:50.470Z,89.00
2023-05-11T22:13:20.743Z,88.30
2023-05-11T22:15:51.281Z,87.70
2023-05-11T22:18:21.893Z,88.10
2023-05-11T22:20:54.992Z,87.50
2023-05-11T22:23:25.352Z,87.30
2023-05-11T22:25:55.768Z,87.40
2023-05-11T22:28:25.876Z,87.50
2023-05-11T22:30:56.250Z,87.60
2023-05-11T22:33:27.099Z,87.90
2023-05-11T22:36:00.406Z,87.80
2023-05-11T22:38:30.571Z,87.70
2023-05-11T22:41:01.159Z,87.60
2023-05-11T22:43:32.158Z,87.40
2023-05-11T22:46:02.956Z,87.70
2023-05-11T22:48:33.796Z,87.30
2023-05-11T22:51:07.468Z,87.40
2023-05-11T22:53:37.808Z,87.50
2023-05-11T22:56:09.437Z,87.10
2023-05-11T22:58:39.583Z,87.10
2023-05-11T23:01:09.735Z,87.00
2023-05-11T23:03:40.428Z,87.10
2023-05-11T23:06:13.744Z,87.00
2023-05-11T23:08:43.788Z,87.20
2023-05-11T23:11:14.181Z,87.50
2023-05-11T23:13:44.460Z,87.20
2023-05-11T23:16:14.831Z,87.40
2023-05-11T23:18:45.532Z,87.30
2023-05-11T23:21:18.548Z,87.50
2023-05-11T23:23:49.192Z,88.00
2023-05-11T23:26:19.769Z,87.80
2023-05-11T23:28:49.987Z,87.90
2023-05-11T23:31:20.380Z,88.00
2023-05-11T23:33:50.650Z,88.00
2023-05-11T23:36:23.449Z,88.10
2023-05-11T23:38:53.557Z,88.20
2023-05-11T23:41:23.738Z,88.30
2023-05-11T23:43:53.853Z,88.40
2023-05-11T23:46:24.389Z,88.40
2023-05-11T23:48:55.238Z,88.60
2023-05-11T23:51:28.591Z,88.50
2023-05-11T23:53:58.668Z,88.70
2023-05-11T23:56:29.022Z,88.80
2023-05-11T23:58:59.078Z,89.20
